Time;durP1;ratioP1;P1;durP2;ratioP2;P2;SDS_P1;SDS_P2;PMS_P1;PMS_P2;Temp;Humidity;BMP_temperature;BMP_pressure;BME280_temperature;BME280_humidity;BME280_pressure;Samples;Min_cycle;Max_cycle;Signal;HPM_P1;HPM_P2
2022/11/14 09:21:15;;;;;;;8.75;7.63;;;;;;;;;;4959690;23;20119;-78
2022/11/14 09:23:41;;;;;;;10.30;7.80;;;;;;;;;;4937861;29;20040;-77
2022/11/14 09:26:08;;;;;;;10.93;7.95;;;;;;;;;;4938256;29;20056;-79
2022/11/14 09:28:34;;;;;;;10.50;8.27;;;;;;;;;;4938821;29;20438;-84
2022/11/14 09:31:05;;;;;;;10.57;9.05;;;;;;;;;;4938882;29;20028;-85
2022/11/14 09:33:34;;;;;;;10.73;8.48;;;;;;;;;;4939058;29;20490;-83
2022/11/14 09:36:02;;;;;;;10.27;8.03;;;;;;;;;;4922034;29;20024;-92
2022/11/14 09:38:28;;;;;;;11.38;8.13;;;;;;;;;;4939364;29;20024;-91
2022/11/14 09:41:19;;;;;;;11.82;8.65;;;;;;;;;;4939091;29;20107;-88
2022/11/14 09:44:03;;;;;;;10.38;8.55;;;;;;;;;;4938561;29;20020;-81
2022/11/14 09:46:45;;;;;;;12.48;8.27;;;;;;;;;;4939210;29;20027;-82
2022/11/14 09:49:41;;;;;;;9.60;7.80;;;;;;;;;;4938590;29;20347;-81
2022/11/14 09:52:35;;;;;;;8.75;7.63;;;;;;;;;;4938897;29;20070;-85
2022/11/14 09:55:10;;;;;;;8.07;6.40;;;;;;;;;;4939103;29;20027;-85
2022/11/14 09:57:36;;;;;;;6.75;6.15;;;;;;;;;;4938164;29;20028;-85
2022/11/14 10:00:05;;;;;;;8.00;6.40;;;;;;;;;;4938540;29;20493;-86
2022/11/14 10:02:47;;;;;;;7.47;6.75;;;;;;;;;;4939124;29;20102;-86
2022/11/14 10:05:21;;;;;;;9.45;7.40;;;;;;;;;;4938334;29;20063;-87
2022/11/14 10:08:11;;;;;;;8.77;7.45;;;;;;;;;;4938019;29;20063;-90
2022/11/14 10:10:42;;;;;;;7.70;6.90;;;;;;;;;;4938201;29;20032;-86
2022/11/14 10:13:16;;;;;;;8.38;6.60;;;;;;;;;;4920732;29;20047;-86
2022/11/14 10:16:14;;;;;;;6.13;5.50;;;;;;;;;;4936771;29;20128;-86
2022/11/14 10:18:45;;;;;;;6.45;5.85;;;;;;;;;;4904808;29;20043;-85
2022/11/14 10:21:25;;;;;;;6.38;5.72;;;;;;;;;;4937841;29;20426;-85
2022/11/14 10:23:56;;;;;;;7.32;6.53;;;;;;;;;;4937631;29;20032;-88
2022/11/14 10:26:37;;;;;;;6.40;5.70;;;;;;;;;;4920513;29;20126;-83
2022/11/14 10:29:27;;;;;;;6.32;5.72;;;;;;;;;;4937436;29;20063;-82
2022/11/14 10:32:18;;;;;;;6.15;5.40;;;;;;;;;;4920388;29;20046;-82
2022/11/14 10:35:11;;;;;;;6.80;5.80;;;;;;;;;;4937631;29;20039;-80
2022/11/14 10:37:58;;;;;;;7.05;6.35;;;;;;;;;;4920656;29;20028;-89
2022/11/14 10:40:29;;;;;;;5.80;5.30;;;;;;;;;;4937899;29;20086;-90
2022/11/14 10:43:02;;;;;;;6.82;6.00;;;;;;;;;;4937655;29;20076;-90
2022/11/14 10:45:39;;;;;;;5.07;4.60;;;;;;;;;;4920807;29;20475;-88
2022/11/14 10:48:38;;;;;;;6.00;5.40;;;;;;;;;;4940215;29;20102;-91
2022/11/14 10:51:10;;;;;;;5.57;4.35;;;;;;;;;;4931729;29;20040;-85
2022/11/14 10:53:57;;;;;;;5.55;5.00;;;;;;;;;;4937501;29;20039;-88
2022/11/14 10:56:22;;;;;;;5.63;4.47;;;;;;;;;;4937871;29;20038;-84
2022/11/14 10:58:48;;;;;;;5.60;4.82;;;;;;;;;;4937135;29;20383;-89
2022/11/14 11:01:42;;;;;;;5.25;4.75;;;;;;;;;;4937136;29;20620;-85
2022/11/14 11:04:29;;;;;;;5.82;5.28;;;;;;;;;;4919947;29;20036;-89
2022/11/14 11:12:50;;;;;;;5.30;4.78;;;;;;;;;;4937568;29;20538;-85
2022/11/14 11:15:27;;;;;;;6.07;5.22;;;;;;;;;;4937004;29;20482;-86
2022/11/14 11:18:01;;;;;;;5.38;4.78;;;;;;;;;;4936546;29;20051;-84
2022/11/14 11:20:31;;;;;;;5.22;4.70;;;;;;;;;;4936654;29;20034;-83
2022/11/14 11:23:25;;;;;;;7.10;5.18;;;;;;;;;;4936483;29;20049;-84
2022/11/14 11:26:08;;;;;;;7.00;5.07;;;;;;;;;;4936765;29;20384;-83
2022/11/14 11:28:35;;;;;;;5.47;4.97;;;;;;;;;;4936543;29;20123;-84
2022/11/14 11:31:04;;;;;;;5.32;4.82;;;;;;;;;;4936236;29;20038;-83
2022/11/14 11:33:34;;;;;;;5.45;4.53;;;;;;;;;;4936776;29;20419;-83
2022/11/14 11:36:22;;;;;;;6.03;5.07;;;;;;;;;;4936167;29;20036;-82
2022/11/14 11:38:48;;;;;;;5.72;4.97;;;;;;;;;;4936516;29;20398;-83
2022/11/14 11:41:34;;;;;;;4.53;4.00;;;;;;;;;;4936430;29;20028;-81
2022/11/14 11:44:04;;;;;;;5.85;4.95;;;;;;;;;;4936568;29;20027;-84
2022/11/14 11:46:42;;;;;;;5.82;5.22;;;;;;;;;;4919089;29;20031;-83
2022/11/14 11:49:30;;;;;;;5.72;5.13;;;;;;;;;;4936482;29;20024;-82
2022/11/14 11:52:00;;;;;;;5.07;4.47;;;;;;;;;;4936522;29;20082;-82
2022/11/14 11:54:50;;;;;;;6.43;4.60;;;;;;;;;;4936168;29;20050;-83
2022/11/14 11:57:20;;;;;;;6.32;4.82;;;;;;;;;;4936350;29;20035;-83
2022/11/14 11:59:48;;;;;;;;;;;;;;;;;;4936909;29;20459;-82
2022/11/14 12:02:22;;;;;;;5.65;4.63;;;;;;;;;;4919895;29;19922;-83
2022/11/14 12:04:50;;;;;;;6.25;4.63;;;;;;;;;;4936417;29;20152;-83
2022/11/14 12:07:23;;;;;;;4.68;4.28;;;;;;;;;;4935970;29;20024;-83
2022/11/14 12:09:49;;;;;;;4.32;3.95;;;;;;;;;;4936515;29;20475;-83
2022/11/14 12:12:23;;;;;;;4.65;3.97;;;;;;;;;;4936507;29;20046;-82
2022/11/14 12:15:07;;;;;;;5.03;4.20;;;;;;;;;;4936230;29;20027;-83
2022/11/14 12:17:50;;;;;;;4.20;3.78;;;;;;;;;;4936169;29;20101;-82
2022/11/14 12:20:34;;;;;;;4.63;4.00;;;;;;;;;;4936131;29;20040;-82
2022/11/14 12:23:12;;;;;;;4.20;3.80;;;;;;;;;;4935737;29;20047;-83
2022/11/14 12:26:15;;;;;;;3.90;3.42;;;;;;;;;;4919048;29;20032;-83
2022/11/14 12:29:15;;;;;;;4.20;3.80;;;;;;;;;;4919491;29;20127;-83
2022/11/14 12:31:41;;;;;;;3.83;3.53;;;;;;;;;;4935893;29;20036;-83
2022/11/14 12:34:19;;;;;;;3.80;3.35;;;;;;;;;;4935831;29;20038;-84
2022/11/14 12:36:45;;;;;;;3.78;3.47;;;;;;;;;;4936105;29;20034;-85
2022/11/14 12:39:30;;;;;;;4.03;3.63;;;;;;;;;;4935519;29;20042;-84
2022/11/14 12:42:08;;;;;;;4.30;3.35;;;;;;;;;;4937519;29;20552;-83
2022/11/14 12:44:38;;;;;;;4.07;3.67;;;;;;;;;;4922654;29;20030;-83
2022/11/14 12:47:04;;;;;;;3.90;3.42;;;;;;;;;;4922248;29;20375;-85
2022/11/14 17:52:13;;;;;;;3.90;3.42;;;;;;;;;;4941020;28;20047;-82
2022/11/14 17:54:38;;;;;;;3.00;2.70;;;;;;;;;;4976833;28;20470;-87
2022/11/14 17:57:04;;;;;;;4.10;3.70;;;;;;;;;;4976869;28;20434;-82
2022/11/14 17:59:29;;;;;;;3.97;3.28;;;;;;;;;;4976517;28;20042;-83
2022/11/14 18:01:58;;;;;;;3.67;3.28;;;;;;;;;;4976621;28;20051;-84
2022/11/14 18:04:24;;;;;;;8.95;6.60;;;;;;;;;;4959157;28;20030;-84
2022/11/14 18:06:50;;;;;;;3.80;3.30;;;;;;;;;;4976955;28;20023;-84
2022/11/14 18:09:15;;;;;;;5.78;3.30;;;;;;;;;;4976428;28;20035;-85
2022/11/14 18:11:41;;;;;;;3.42;3.13;;;;;;;;;;4976394;28;20023;-85
2022/11/14 18:14:06;;;;;;;5.72;4.78;;;;;;;;;;4976524;28;20033;-84
2022/11/14 18:16:32;;;;;;;6.40;4.88;;;;;;;;;;4976372;28;20034;-85
2022/11/14 18:18:57;;;;;;;3.33;3.03;;;;;;;;;;4958791;28;20114;-81
2022/11/14 18:21:23;;;;;;;6.00;3.80;;;;;;;;;;4976346;28;20031;-84
2022/11/14 18:23:54;;;;;;;5.93;5.13;;;;;;;;;;4958800;28;20470;-83
2022/11/14 18:26:25;;;;;;;3.33;3.00;;;;;;;;;;4975969;28;20377;-83
2022/11/14 18:28:59;;;;;;;3.05;2.75;;;;;;;;;;4976140;28;20026;-83
2022/11/14 18:31:25;;;;;;;3.80;3.50;;;;;;;;;;4958965;28;20069;-83
2022/11/14 18:33:51;;;;;;;4.20;3.70;;;;;;;;;;4975902;28;20027;-84
2022/11/14 18:36:17;;;;;;;4.25;3.55;;;;;;;;;;4975948;28;20030;-83
2022/11/14 18:38:43;;;;;;;3.78;3.40;;;;;;;;;;4975080;28;20030;-84
2022/11/14 18:41:19;;;;;;;4.53;4.13;;;;;;;;;;4975607;28;20442;-84
2022/11/14 18:43:46;;;;;;;4.53;4.00;;;;;;;;;;4975672;28;20022;-84
2022/11/14 18:46:16;;;;;;;4.15;3.67;;;;;;;;;;4975709;28;20023;-81
2022/11/14 18:48:44;;;;;;;4.50;3.70;;;;;;;;;;4994617;28;20026;-84
2022/11/14 18:51:15;;;;;;;4.15;3.75;;;;;;;;;;4995304;28;20046;-83
2022/11/14 18:53:41;;;;;;;4.78;4.38;;;;;;;;;;4977270;28;20385;-82
2022/11/14 18:56:08;;;;;;;5.50;3.65;;;;;;;;;;4995004;28;20026;-82
2022/11/14 18:58:38;;;;;;;4.80;4.07;;;;;;;;;;4994607;28;20026;-83
2022/11/14 19:01:10;;;;;;;9.85;8.98;;;;;;;;;;4994868;28;20077;-81
2022/11/14 19:03:35;;;;;;;10.13;8.15;;;;;;;;;;4994908;28;20035;-81
2022/11/14 19:06:02;;;;;;;5.80;5.20;;;;;;;;;;4977551;28;20030;-81
2022/11/14 19:08:28;;;;;;;5.82;5.22;;;;;;;;;;4994814;28;20118;-85
2022/11/14 19:12:17;;;;;;;9.27;8.15;;;;;;;;;;4994641;28;20477;-85
2022/11/14 19:13:55;;;;;;;14.52;13.30;;;;;;;;;;4994918;28;20030;-82
2022/11/14 19:16:21;;;;;;;8.80;7.90;;;;;;;;;;4994910;28;20385;-84
2022/11/14 19:18:46;;;;;;;7.07;6.38;;;;;;;;;;4994841;28;20026;-84
2022/11/14 19:21:12;;;;;;;7.78;5.78;;;;;;;;;;4994730;28;20046;-82
2022/11/14 19:23:37;;;;;;;6.88;5.95;;;;;;;;;;4994628;28;20355;-85
2022/11/14 19:26:03;;;;;;;9.40;5.85;;;;;;;;;;4994668;28;20385;-85
2022/11/14 19:28:28;;;;;;;6.63;5.15;;;;;;;;;;4994603;28;20030;-85
2022/11/14 19:31:00;;;;;;;5.85;5.25;;;;;;;;;;4994509;28;20018;-85
2022/11/14 19:33:29;;;;;;;6.18;5.57;;;;;;;;;;4995648;28;20026;-88
2022/11/14 19:35:54;;;;;;;8.60;6.85;;;;;;;;;;4978078;28;20030;-86
2022/11/14 19:38:20;;;;;;;7.95;5.90;;;;;;;;;;4994335;28;20030;-88
2022/11/14 19:40:49;;;;;;;5.65;5.15;;;;;;;;;;4994879;28;20037;-88
2022/11/14 19:43:16;;;;;;;6.57;5.57;;;;;;;;;;4994663;28;20032;-88
2022/11/14 19:45:41;;;;;;;6.45;5.20;;;;;;;;;;4994960;28;20046;-87
2022/11/14 19:48:07;;;;;;;7.82;7.13;;;;;;;;;;4994261;28;20446;-88
2022/11/14 19:50:32;;;;;;;5.70;5.18;;;;;;;;;;4994496;28;20125;-88
2022/11/14 19:52:58;;;;;;;7.05;5.60;;;;;;;;;;4994339;28;20023;-88
2022/11/14 19:55:23;;;;;;;6.88;5.00;;;;;;;;;;4994264;28;20029;-88
2022/11/14 19:57:49;;;;;;;4.72;4.28;;;;;;;;;;4995486;28;20029;-88
2022/11/14 20:00:15;;;;;;;5.40;4.05;;;;;;;;;;4994288;28;20485;-88
2022/11/14 20:02:40;;;;;;;5.90;5.35;;;;;;;;;;4994067;28;20034;-87
2022/11/14 20:05:07;;;;;;;6.18;5.28;;;;;;;;;;4976600;28;20440;-87
2022/11/14 20:07:34;;;;;;;5.45;4.95;;;;;;;;;;4993966;28;20480;-86
2022/11/14 20:10:00;;;;;;;5.55;4.90;;;;;;;;;;4994744;28;20026;-87
2022/11/14 20:12:25;;;;;;;5.45;4.90;;;;;;;;;;4995652;28;20533;-86
2022/11/14 20:14:51;;;;;;;4.93;4.30;;;;;;;;;;4994999;28;20030;-84
2022/11/14 20:17:16;;;;;;;4.53;4.13;;;;;;;;;;4994787;28;20496;-87
2022/11/14 20:19:42;;;;;;;5.10;4.38;;;;;;;;;;4994549;28;20465;-86
2022/11/14 20:22:07;;;;;;;5.53;5.00;;;;;;;;;;4976842;28;20363;-89
2022/11/14 20:24:33;;;;;;;4.90;4.43;;;;;;;;;;4994890;28;20030;-94
2022/11/14 20:26:58;;;;;;;7.97;6.15;;;;;;;;;;4995815;28;20023;-93
2022/11/14 20:29:24;;;;;;;6.38;5.53;;;;;;;;;;4977807;28;20026;-91
2022/11/14 20:31:49;;;;;;;7.45;5.68;;;;;;;;;;4995037;28;20469;-80
2022/11/14 20:34:15;;;;;;;6.20;5.60;;;;;;;;;;4993977;28;20054;-88
2022/11/14 20:36:41;;;;;;;6.68;5.65;;;;;;;;;;4994887;28;20042;-89
2022/11/14 20:39:06;;;;;;;6.78;5.03;;;;;;;;;;4994865;28;20054;-93
2022/11/14 20:41:32;;;;;;;6.70;6.00;;;;;;;;;;4994364;28;20503;-88
2022/11/14 20:44:00;;;;;;;7.45;5.85;;;;;;;;;;4993913;28;20027;-83
2022/11/14 20:46:25;;;;;;;14.07;12.65;;;;;;;;;;4993779;28;20469;-89
2022/11/14 20:48:51;;;;;;;9.27;8.32;;;;;;;;;;4994214;28;20046;-87
2022/11/14 20:51:21;;;;;;;9.73;8.82;;;;;;;;;;4994020;28;20034;-82
2022/11/14 20:53:47;;;;;;;8.05;7.30;;;;;;;;;;4994038;28;20500;-82
2022/11/14 20:56:14;;;;;;;8.32;7.35;;;;;;;;;;4993904;28;20035;-84
2022/11/14 20:58:41;;;;;;;7.50;6.70;;;;;;;;;;4994037;28;20030;-84
2022/11/14 21:01:07;;;;;;;7.93;6.78;;;;;;;;;;4994075;28;20516;-84
2022/11/14 21:03:33;;;;;;;10.13;7.20;;;;;;;;;;4996088;28;20031;-84
2022/11/14 21:05:59;;;;;;;7.82;6.70;;;;;;;;;;4979645;28;20029;-83
2022/11/14 21:08:25;;;;;;;7.30;6.60;;;;;;;;;;4997176;28;20022;-84
2022/11/14 21:10:57;;;;;;;14.43;10.43;;;;;;;;;;4992571;28;20027;-83
2022/11/14 21:16:10;;;;;;;8.57;6.65;;;;;;;;;;4978243;28;20394;-83
2022/11/14 21:18:39;;;;;;;8.02;6.68;;;;;;;;;;4978081;28;20023;-83
2022/11/14 21:21:07;;;;;;;8.60;7.32;;;;;;;;;;4978159;28;20081;-83
2022/11/14 21:23:33;;;;;;;7.18;6.47;;;;;;;;;;4978577;28;20062;-83
2022/11/14 21:26:17;;;;;;;6.93;6.13;;;;;;;;;;4978154;28;20474;-83
2022/11/14 21:28:45;;;;;;;7.45;5.20;;;;;;;;;;4979509;28;20039;-83
2022/11/14 21:31:25;;;;;;;8.15;6.75;;;;;;;;;;4991502;28;20362;-84
2022/11/14 21:33:55;;;;;;;8.73;6.30;;;;;;;;;;4988188;28;20087;-84
2022/11/14 21:36:21;;;;;;;7.03;6.22;;;;;;;;;;4993703;28;20026;-85
2022/11/14 21:38:46;;;;;;;6.00;5.40;;;;;;;;;;4985696;28;20023;-84
2022/11/14 21:41:17;;;;;;;6.95;5.82;;;;;;;;;;4987861;28;20022;-85
2022/11/14 21:43:43;;;;;;;7.20;5.68;;;;;;;;;;4988479;28;20034;-84
2022/11/14 21:46:11;;;;;;;6.30;5.40;;;;;;;;;;4985519;28;20026;-85
2022/11/14 21:48:39;;;;;;;6.13;5.53;;;;;;;;;;4986790;28;20030;-84
2022/11/14 21:51:13;;;;;;;5.43;4.50;;;;;;;;;;4987188;28;20038;-85
2022/11/14 21:53:39;;;;;;;5.20;4.45;;;;;;;;;;4968718;28;20023;-85
2022/11/14 21:56:18;;;;;;;5.72;5.03;;;;;;;;;;4985509;28;20026;-84
2022/11/14 21:58:44;;;;;;;5.30;4.63;;;;;;;;;;4987087;28;20031;-83
2022/11/14 22:04:12;;;;;;;7.28;5.60;;;;;;;;;;4988584;28;20092;-83
2022/11/14 22:06:41;;;;;;;6.55;5.40;;;;;;;;;;4996023;28;20588;-84
2022/11/14 22:09:08;;;;;;;8.00;6.40;;;;;;;;;;4996163;28;20030;-84
2022/11/14 22:11:36;;;;;;;8.75;6.70;;;;;;;;;;4996080;28;20022;-85
2022/11/14 22:14:02;;;;;;;6.68;5.70;;;;;;;;;;4995681;28;20022;-84
2022/11/14 22:16:27;;;;;;;7.38;6.05;;;;;;;;;;4995985;28;20458;-85
2022/11/14 22:18:54;;;;;;;6.90;5.60;;;;;;;;;;4995815;28;20034;-84
2022/11/14 22:21:21;;;;;;;5.43;4.93;;;;;;;;;;4995732;28;20033;-85
2022/11/14 22:23:46;;;;;;;6.55;5.03;;;;;;;;;;4995959;28;20026;-85
2022/11/14 22:26:13;;;;;;;6.57;5.25;;;;;;;;;;4995947;28;20372;-84
2022/11/14 22:28:38;;;;;;;6.70;5.43;;;;;;;;;;4995743;28;20541;-85
2022/11/14 22:31:15;;;;;;;7.53;6.35;;;;;;;;;;4995517;28;20062;-85
2022/11/14 22:33:43;;;;;;;7.82;6.35;;;;;;;;;;4995732;28;20041;-85
2022/11/14 22:36:11;;;;;;;9.40;6.75;;;;;;;;;;4995577;28;20097;-85
2022/11/14 22:38:37;;;;;;;7.75;6.78;;;;;;;;;;4995305;28;20070;-86
2022/11/14 22:41:05;;;;;;;6.30;5.53;;;;;;;;;;4995621;28;20516;-85
2022/11/14 22:43:31;;;;;;;6.70;5.88;;;;;;;;;;4978065;28;20068;-86
2022/11/14 22:45:59;;;;;;;8.65;5.65;;;;;;;;;;4995262;28;20026;-85
2022/11/14 22:48:26;;;;;;;7.88;6.15;;;;;;;;;;4995131;28;20079;-86
2022/11/14 22:51:04;;;;;;;8.07;6.10;;;;;;;;;;4995213;28;20549;-86
2022/11/14 22:53:32;;;;;;;6.30;5.25;;;;;;;;;;4995120;28;20026;-86
2022/11/14 22:55:58;;;;;;;7.30;5.97;;;;;;;;;;4995405;28;20029;-86
2022/11/14 22:58:24;;;;;;;6.53;5.05;;;;;;;;;;4977438;28;20429;-86
2022/11/14 23:00:51;;;;;;;8.13;6.00;;;;;;;;;;4994842;28;20105;-85
2022/11/14 23:03:18;;;;;;;5.53;4.65;;;;;;;;;;4994823;28;20474;-85
2022/11/14 23:05:44;;;;;;;5.97;5.22;;;;;;;;;;4994886;28;20026;-83
2022/11/14 23:08:10;;;;;;;5.25;4.75;;;;;;;;;;4994765;28;20113;-83
2022/11/14 23:10:35;;;;;;;6.85;4.65;;;;;;;;;;4977247;28;20385;-85
2022/11/14 23:13:01;;;;;;;6.05;4.90;;;;;;;;;;4994553;28;20030;-83
2022/11/14 23:15:26;;;;;;;5.45;4.80;;;;;;;;;;4994549;28;20105;-83
2022/11/14 23:17:52;;;;;;;4.57;3.97;;;;;;;;;;4994635;28;20101;-83
2022/11/14 23:20:18;;;;;;;7.40;4.57;;;;;;;;;;4994519;28;20077;-82
2022/11/14 23:22:43;;;;;;;5.85;5.15;;;;;;;;;;4994480;28;20038;-82
2022/11/14 23:25:08;;;;;;;5.80;5.07;;;;;;;;;;4993867;28;20027;-82
2022/11/14 23:27:34;;;;;;;6.28;5.63;;;;;;;;;;4994526;28;20480;-85
2022/11/14 23:29:59;;;;;;;6.35;4.82;;;;;;;;;;4976965;28;20110;-82
2022/11/14 23:32:28;;;;;;;7.68;5.95;;;;;;;;;;4977078;28;20085;-83
2022/11/14 23:34:54;;;;;;;7.93;6.63;;;;;;;;;;4994380;28;20029;-82
2022/11/14 23:37:19;;;;;;;8.85;6.35;;;;;;;;;;4994199;28;20026;-82
